SBOSBO CUN / MMUN
Speedbird OnlineSpeedbird Online CUN / MMUN

Cancún International Airport
02:53 20.1°C

Location Cancun, Mexico
Latitude: 21.036500930800003
Longitude: -86.8770980835
Web Airport Website | Wikipedia
Altitude 7 Meter / 22 Feet
Distance 7,990 KM / 4,965 Miles
from London.
Time Zone UTC -5 hours (America/Cancun)
Codes IATA: CUN
ICAO: MMUN
Currency £1 equals MXN 22.72
Runways
RunwayLength (m)Surface
12L2800Asphalt
12R3500Asphalt
30L3500Asphalt
30R2800Asphalt
Radio
TypeDescriptionFrequency
APPAPP120.4
ARRARR120.4
ATISATIS127.7
CLDCLNC DEL122.1
DEPDEP119.8
GNDGND121.7
TWR NorthTower North118.1
TWR STower South118.6
Live ATC
METAR MMUN 060640Z 00000KT 7SM SKC 20/19 A2998
TAF TAF MMUN 060452Z 0606/0712 00000KT 6SM HZ SKC TX30/0619Z TN18/0612Z FM061800 13010KT 6SM HZ SCT020 FM070300 13005KT 6SM HZ SCT015
Weather As Of 06 Oct 2022 02:45
Description Clear sky
Wind 6 km/h from North (20°)
Cloud Cover 0%
Precipitation Rain: none, Snow: none
Sunrise 06:39
Sunset 18:31
Lounges Mera Business Lounge , Terminal 3, Departure level
Rotations During the last 90 days there were
84 flights from LGW
83 flights to LGW


© 2017-2022 Speedbird Online